sensor_id;sensor_type;location;lat;lon;timestamp;P1;durP1;ratioP1;P2;durP2;ratioP2
1957;SDS011;979;51.076;13.748;2022-11-03T00:01:47;21.00;;;19.80;;
1957;SDS011;979;51.076;13.748;2022-11-03T00:04:23;20.60;;;19.17;;
1957;SDS011;979;51.076;13.748;2022-11-03T00:06:56;18.97;;;18.07;;
1957;SDS011;979;51.076;13.748;2022-11-03T00:09:29;19.40;;;18.33;;
1957;SDS011;979;51.076;13.748;2022-11-03T00:11:59;20.03;;;18.57;;
1957;SDS011;979;51.076;13.748;2022-11-03T00:14:40;21.20;;;19.43;;
1957;SDS011;979;51.076;13.748;2022-11-03T00:17:10;19.80;;;18.83;;
1957;SDS011;979;51.076;13.748;2022-11-03T00:19:38;20.90;;;19.60;;
1957;SDS011;979;51.076;13.748;2022-11-03T00:22:06;21.40;;;20.30;;
1957;SDS011;979;51.076;13.748;2022-11-03T00:24:34;20.23;;;19.17;;
1957;SDS011;979;51.076;13.748;2022-11-03T00:27:07;20.80;;;19.80;;
1957;SDS011;979;51.076;13.748;2022-11-03T00:29:37;20.73;;;19.30;;
1957;SDS011;979;51.076;13.748;2022-11-03T00:32:18;19.93;;;18.93;;
1957;SDS011;979;51.076;13.748;2022-11-03T00:34:56;20.73;;;19.73;;
1957;SDS011;979;51.076;13.748;2022-11-03T00:37:29;20.90;;;19.73;;
1957;SDS011;979;51.076;13.748;2022-11-03T00:40:11;21.27;;;19.97;;
1957;SDS011;979;51.076;13.748;2022-11-03T00:42:49;21.10;;;19.70;;
1957;SDS011;979;51.076;13.748;2022-11-03T00:45:20;22.60;;;20.97;;
1957;SDS011;979;51.076;13.748;2022-11-03T00:47:56;21.20;;;20.10;;
1957;SDS011;979;51.076;13.748;2022-11-03T00:50:44;20.20;;;19.13;;
1957;SDS011;979;51.076;13.748;2022-11-03T00:53:26;22.20;;;20.77;;
1957;SDS011;979;51.076;13.748;2022-11-03T00:56:08;20.43;;;19.53;;
1957;SDS011;979;51.076;13.748;2022-11-03T00:58:43;21.47;;;20.47;;
1957;SDS011;979;51.076;13.748;2022-11-03T01:01:20;20.60;;;19.40;;
1957;SDS011;979;51.076;13.748;2022-11-03T01:04:03;20.90;;;19.73;;
1957;SDS011;979;51.076;13.748;2022-11-03T01:06:57;18.17;;;17.37;;
1957;SDS011;979;51.076;13.748;2022-11-03T01:09:33;20.77;;;19.80;;
1957;SDS011;979;51.076;13.748;2022-11-03T01:12:13;20.87;;;19.70;;
1957;SDS011;979;51.076;13.748;2022-11-03T01:14:44;22.03;;;20.20;;
1957;SDS011;979;51.076;13.748;2022-11-03T01:17:14;21.13;;;20.10;;
1957;SDS011;979;51.076;13.748;2022-11-03T01:19:45;20.53;;;19.50;;
1957;SDS011;979;51.076;13.748;2022-11-03T01:22:14;21.50;;;20.30;;
1957;SDS011;979;51.076;13.748;2022-11-03T01:24:43;22.83;;;21.53;;
1957;SDS011;979;51.076;13.748;2022-11-03T01:27:12;21.40;;;20.30;;
1957;SDS011;979;51.076;13.748;2022-11-03T01:29:42;20.83;;;19.60;;
1957;SDS011;979;51.076;13.748;2022-11-03T01:32:10;21.70;;;20.10;;
1957;SDS011;979;51.076;13.748;2022-11-03T01:34:38;21.43;;;20.13;;
1957;SDS011;979;51.076;13.748;2022-11-03T01:37:08;20.80;;;19.50;;
1957;SDS011;979;51.076;13.748;2022-11-03T01:39:36;22.60;;;21.20;;
1957;SDS011;979;51.076;13.748;2022-11-03T01:42:13;21.70;;;20.50;;
1957;SDS011;979;51.076;13.748;2022-11-03T01:44:51;20.63;;;19.37;;
1957;SDS011;979;51.076;13.748;2022-11-03T01:47:23;20.47;;;19.40;;
1957;SDS011;979;51.076;13.748;2022-11-03T01:49:57;20.27;;;19.37;;
1957;SDS011;979;51.076;13.748;2022-11-03T01:52:30;21.67;;;20.37;;
1957;SDS011;979;51.076;13.748;2022-11-03T01:55:02;21.30;;;19.57;;
1957;SDS011;979;51.076;13.748;2022-11-03T01:57:35;21.30;;;20.10;;
1957;SDS011;979;51.076;13.748;2022-11-03T02:00:07;21.10;;;19.73;;
1957;SDS011;979;51.076;13.748;2022-11-03T02:02:39;20.50;;;19.40;;
1957;SDS011;979;51.076;13.748;2022-11-03T02:05:09;20.97;;;19.83;;
1957;SDS011;979;51.076;13.748;2022-11-03T02:07:44;21.37;;;20.37;;
1957;SDS011;979;51.076;13.748;2022-11-03T02:10:17;20.93;;;19.60;;
1957;SDS011;979;51.076;13.748;2022-11-03T02:12:45;21.03;;;19.97;;
1957;SDS011;979;51.076;13.748;2022-11-03T02:15:16;20.20;;;19.30;;
1957;SDS011;979;51.076;13.748;2022-11-03T02:17:49;20.60;;;19.60;;
1957;SDS011;979;51.076;13.748;2022-11-03T02:20:25;20.57;;;19.57;;
1957;SDS011;979;51.076;13.748;2022-11-03T02:23:13;21.47;;;20.27;;
1957;SDS011;979;51.076;13.748;2022-11-03T02:26:06;22.77;;;20.90;;
1957;SDS011;979;51.076;13.748;2022-11-03T02:28:51;21.70;;;20.70;;
1957;SDS011;979;51.076;13.748;2022-11-03T02:31:45;20.03;;;18.80;;
1957;SDS011;979;51.076;13.748;2022-11-03T02:38:56;19.70;;;18.80;;
1957;SDS011;979;51.076;13.748;2022-11-03T02:41:41;19.77;;;18.87;;
1957;SDS011;979;51.076;13.748;2022-11-03T02:44:22;19.23;;;18.23;;
1957;SDS011;979;51.076;13.748;2022-11-03T02:47:02;20.70;;;19.47;;
1957;SDS011;979;51.076;13.748;2022-11-03T02:49:37;20.60;;;19.60;;
1957;SDS011;979;51.076;13.748;2022-11-03T02:52:31;19.67;;;18.57;;
1957;SDS011;979;51.076;13.748;2022-11-03T02:55:11;20.00;;;18.77;;
1957;SDS011;979;51.076;13.748;2022-11-03T02:58:01;20.67;;;19.60;;
1957;SDS011;979;51.076;13.748;2022-11-03T03:00:40;19.03;;;18.23;;
1957;SDS011;979;51.076;13.748;2022-11-03T03:03:20;22.20;;;20.80;;
1957;SDS011;979;51.076;13.748;2022-11-03T03:06:04;19.63;;;18.73;;
1957;SDS011;979;51.076;13.748;2022-11-03T03:08:57;19.87;;;18.87;;
1957;SDS011;979;51.076;13.748;2022-11-03T03:11:40;20.20;;;19.13;;
1957;SDS011;979;51.076;13.748;2022-11-03T03:14:13;19.33;;;18.30;;
1957;SDS011;979;51.076;13.748;2022-11-03T03:16:47;19.30;;;18.40;;
1957;SDS011;979;51.076;13.748;2022-11-03T03:19:21;19.67;;;18.77;;
1957;SDS011;979;51.076;13.748;2022-11-03T03:21:57;21.87;;;20.47;;
1957;SDS011;979;51.076;13.748;2022-11-03T03:24:35;21.33;;;20.13;;
1957;SDS011;979;51.076;13.748;2022-11-03T03:27:07;20.93;;;19.90;;
1957;SDS011;979;51.076;13.748;2022-11-03T03:29:41;20.07;;;19.17;;
1957;SDS011;979;51.076;13.748;2022-11-03T03:32:13;21.00;;;20.00;;
1957;SDS011;979;51.076;13.748;2022-11-03T03:34:45;22.47;;;20.30;;
1957;SDS011;979;51.076;13.748;2022-11-03T03:37:15;20.23;;;19.20;;
1957;SDS011;979;51.076;13.748;2022-11-03T03:39:47;21.83;;;20.23;;
1957;SDS011;979;51.076;13.748;2022-11-03T03:42:19;21.90;;;20.80;;
1957;SDS011;979;51.076;13.748;2022-11-03T03:44:52;22.43;;;21.33;;
1957;SDS011;979;51.076;13.748;2022-11-03T03:47:23;22.90;;;21.70;;
1957;SDS011;979;51.076;13.748;2022-11-03T03:49:54;26.30;;;24.33;;
1957;SDS011;979;51.076;13.748;2022-11-03T03:52:23;25.07;;;23.33;;
1957;SDS011;979;51.076;13.748;2022-11-03T03:54:52;22.43;;;20.93;;
1957;SDS011;979;51.076;13.748;2022-11-03T03:57:22;22.37;;;20.87;;
1957;SDS011;979;51.076;13.748;2022-11-03T03:59:52;22.97;;;21.17;;
1957;SDS011;979;51.076;13.748;2022-11-03T04:02:21;21.40;;;20.10;;
1957;SDS011;979;51.076;13.748;2022-11-03T04:04:49;21.43;;;20.00;;
1957;SDS011;979;51.076;13.748;2022-11-03T04:07:17;21.93;;;20.70;;
1957;SDS011;979;51.076;13.748;2022-11-03T04:10:09;20.40;;;19.40;;
1957;SDS011;979;51.076;13.748;2022-11-03T04:12:48;24.23;;;22.57;;
1957;SDS011;979;51.076;13.748;2022-11-03T04:15:39;20.63;;;19.73;;
1957;SDS011;979;51.076;13.748;2022-11-03T04:18:25;19.13;;;18.13;;
1957;SDS011;979;51.076;13.748;2022-11-03T04:21:11;21.70;;;20.30;;
1957;SDS011;979;51.076;13.748;2022-11-03T04:23:57;21.60;;;20.43;;
1957;SDS011;979;51.076;13.748;2022-11-03T04:26:31;21.50;;;20.20;;
1957;SDS011;979;51.076;13.748;2022-11-03T04:29:13;23.00;;;20.37;;
1957;SDS011;979;51.076;13.748;2022-11-03T04:31:46;20.77;;;19.27;;
1957;SDS011;979;51.076;13.748;2022-11-03T04:34:21;21.97;;;20.47;;
1957;SDS011;979;51.076;13.748;2022-11-03T04:36:53;20.70;;;19.60;;
1957;SDS011;979;51.076;13.748;2022-11-03T04:39:26;22.53;;;21.13;;
1957;SDS011;979;51.076;13.748;2022-11-03T04:41:58;22.00;;;20.50;;
1957;SDS011;979;51.076;13.748;2022-11-03T04:44:28;22.17;;;20.83;;
1957;SDS011;979;51.076;13.748;2022-11-03T04:46:58;21.30;;;20.30;;
1957;SDS011;979;51.076;13.748;2022-11-03T04:49:26;22.00;;;20.40;;
1957;SDS011;979;51.076;13.748;2022-11-03T04:51:54;21.23;;;20.20;;
1957;SDS011;979;51.076;13.748;2022-11-03T04:54:23;21.30;;;20.20;;
1957;SDS011;979;51.076;13.748;2022-11-03T04:56:51;22.60;;;21.33;;
1957;SDS011;979;51.076;13.748;2022-11-03T04:59:19;20.93;;;19.63;;
1957;SDS011;979;51.076;13.748;2022-11-03T05:01:47;22.67;;;21.07;;
1957;SDS011;979;51.076;13.748;2022-11-03T05:04:17;22.30;;;20.73;;
1957;SDS011;979;51.076;13.748;2022-11-03T05:06:46;20.70;;;19.70;;
1957;SDS011;979;51.076;13.748;2022-11-03T05:09:18;21.10;;;20.10;;
1957;SDS011;979;51.076;13.748;2022-11-03T05:11:55;20.70;;;19.67;;
1957;SDS011;979;51.076;13.748;2022-11-03T05:14:24;20.03;;;18.67;;
1957;SDS011;979;51.076;13.748;2022-11-03T05:16:57;19.73;;;18.90;;
1957;SDS011;979;51.076;13.748;2022-11-03T05:55:56;23.43;;;21.43;;
1957;SDS011;979;51.076;13.748;2022-11-03T05:59:18;21.87;;;20.37;;
1957;SDS011;979;51.076;13.748;2022-11-03T06:06:09;24.07;;;22.20;;
1957;SDS011;979;51.076;13.748;2022-11-03T06:09:34;21.57;;;19.80;;
1957;SDS011;979;51.076;13.748;2022-11-03T06:20:51;22.40;;;20.80;;
1957;SDS011;979;51.076;13.748;2022-11-03T06:23:41;22.53;;;21.23;;
1957;SDS011;979;51.076;13.748;2022-11-03T06:33:59;22.63;;;21.27;;
1957;SDS011;979;51.076;13.748;2022-11-03T06:36:44;22.73;;;21.50;;
1957;SDS011;979;51.076;13.748;2022-11-03T06:39:38;25.13;;;23.10;;
1957;SDS011;979;51.076;13.748;2022-11-03T06:56:13;22.37;;;20.87;;
1957;SDS011;979;51.076;13.748;2022-11-03T06:59:23;22.63;;;20.53;;
1957;SDS011;979;51.076;13.748;2022-11-03T07:01:57;24.50;;;22.30;;
1957;SDS011;979;51.076;13.748;2022-11-03T07:04:36;24.27;;;22.20;;
1957;SDS011;979;51.076;13.748;2022-11-03T07:07:29;22.30;;;20.73;;
1957;SDS011;979;51.076;13.748;2022-11-03T07:13:05;22.10;;;20.53;;
1957;SDS011;979;51.076;13.748;2022-11-03T07:21:58;22.20;;;20.43;;
1957;SDS011;979;51.076;13.748;2022-11-03T07:25:50;23.13;;;21.73;;
1957;SDS011;979;51.076;13.748;2022-11-03T07:29:14;22.90;;;21.40;;
1957;SDS011;979;51.076;13.748;2022-11-03T07:32:08;23.03;;;21.23;;
1957;SDS011;979;51.076;13.748;2022-11-03T07:35:21;21.80;;;20.50;;
1957;SDS011;979;51.076;13.748;2022-11-03T07:41:54;25.13;;;22.93;;
1957;SDS011;979;51.076;13.748;2022-11-03T07:44:39;22.57;;;21.23;;
1957;SDS011;979;51.076;13.748;2022-11-03T07:47:10;22.40;;;20.67;;
1957;SDS011;979;51.076;13.748;2022-11-03T07:49:40;22.73;;;21.03;;
1957;SDS011;979;51.076;13.748;2022-11-03T07:52:12;23.40;;;21.07;;
1957;SDS011;979;51.076;13.748;2022-11-03T07:54:43;23.37;;;21.13;;
1957;SDS011;979;51.076;13.748;2022-11-03T07:57:12;22.67;;;21.03;;
1957;SDS011;979;51.076;13.748;2022-11-03T07:59:44;21.33;;;19.90;;
1957;SDS011;979;51.076;13.748;2022-11-03T08:02:18;19.93;;;18.80;;
1957;SDS011;979;51.076;13.748;2022-11-03T08:04:56;19.17;;;18.03;;
1957;SDS011;979;51.076;13.748;2022-11-03T08:07:24;18.77;;;17.67;;
1957;SDS011;979;51.076;13.748;2022-11-03T08:09:53;18.50;;;17.30;;
1957;SDS011;979;51.076;13.748;2022-11-03T08:12:22;19.87;;;18.70;;
1957;SDS011;979;51.076;13.748;2022-11-03T08:14:54;18.90;;;17.60;;
1957;SDS011;979;51.076;13.748;2022-11-03T08:17:22;19.30;;;17.90;;
1957;SDS011;979;51.076;13.748;2022-11-03T08:19:50;17.60;;;16.53;;
1957;SDS011;979;51.076;13.748;2022-11-03T08:22:19;17.60;;;16.70;;
1957;SDS011;979;51.076;13.748;2022-11-03T08:24:48;19.37;;;17.77;;
1957;SDS011;979;51.076;13.748;2022-11-03T08:27:16;17.33;;;16.43;;
1957;SDS011;979;51.076;13.748;2022-11-03T08:29:45;21.63;;;20.30;;
1957;SDS011;979;51.076;13.748;2022-11-03T08:32:14;18.33;;;17.43;;
1957;SDS011;979;51.076;13.748;2022-11-03T08:34:42;18.60;;;17.67;;
1957;SDS011;979;51.076;13.748;2022-11-03T08:37:11;19.27;;;18.17;;
1957;SDS011;979;51.076;13.748;2022-11-03T08:39:41;17.37;;;16.50;;
1957;SDS011;979;51.076;13.748;2022-11-03T08:42:19;17.70;;;16.90;;
1957;SDS011;979;51.076;13.748;2022-11-03T08:45:17;17.93;;;16.73;;
1957;SDS011;979;51.076;13.748;2022-11-03T08:48:31;18.33;;;17.43;;
1957;SDS011;979;51.076;13.748;2022-11-03T08:55:39;18.80;;;17.50;;
1957;SDS011;979;51.076;13.748;2022-11-03T08:58:41;17.60;;;16.80;;
1957;SDS011;979;51.076;13.748;2022-11-03T09:01:17;19.13;;;17.53;;
1957;SDS011;979;51.076;13.748;2022-11-03T09:04:08;18.60;;;17.70;;
1957;SDS011;979;51.076;13.748;2022-11-03T09:06:46;19.37;;;18.27;;
1957;SDS011;979;51.076;13.748;2022-11-03T09:09:43;18.73;;;17.43;;
1957;SDS011;979;51.076;13.748;2022-11-03T09:12:43;19.67;;;18.17;;
1957;SDS011;979;51.076;13.748;2022-11-03T09:15:22;18.00;;;17.00;;
1957;SDS011;979;51.076;13.748;2022-11-03T09:17:56;17.37;;;16.40;;
1957;SDS011;979;51.076;13.748;2022-11-03T09:20:25;17.93;;;17.10;;
1957;SDS011;979;51.076;13.748;2022-11-03T09:22:54;18.60;;;17.53;;
1957;SDS011;979;51.076;13.748;2022-11-03T09:25:22;21.17;;;19.97;;
1957;SDS011;979;51.076;13.748;2022-11-03T09:27:50;18.07;;;17.13;;
1957;SDS011;979;51.076;13.748;2022-11-03T09:30:19;18.03;;;16.70;;
1957;SDS011;979;51.076;13.748;2022-11-03T09:32:47;17.00;;;16.10;;
1957;SDS011;979;51.076;13.748;2022-11-03T09:35:15;18.40;;;17.17;;
1957;SDS011;979;51.076;13.748;2022-11-03T09:37:46;18.70;;;17.23;;
1957;SDS011;979;51.076;13.748;2022-11-03T09:40:32;19.93;;;18.73;;
1957;SDS011;979;51.076;13.748;2022-11-03T09:43:18;18.33;;;17.33;;
1957;SDS011;979;51.076;13.748;2022-11-03T09:46:04;17.47;;;16.57;;
1957;SDS011;979;51.076;13.748;2022-11-03T09:48:44;18.00;;;17.00;;
1957;SDS011;979;51.076;13.748;2022-11-03T09:51:35;17.70;;;16.57;;
1957;SDS011;979;51.076;13.748;2022-11-03T09:54:21;17.30;;;16.60;;
1957;SDS011;979;51.076;13.748;2022-11-03T09:57:14;18.13;;;17.23;;
1957;SDS011;979;51.076;13.748;2022-11-03T09:59:47;17.83;;;17.23;;
1957;SDS011;979;51.076;13.748;2022-11-03T10:02:35;17.60;;;16.90;;
1957;SDS011;979;51.076;13.748;2022-11-03T10:05:07;18.67;;;17.67;;
1957;SDS011;979;51.076;13.748;2022-11-03T10:07:39;17.90;;;16.93;;
1957;SDS011;979;51.076;13.748;2022-11-03T10:10:14;18.50;;;17.60;;
1957;SDS011;979;51.076;13.748;2022-11-03T10:13:04;18.30;;;16.97;;
1957;SDS011;979;51.076;13.748;2022-11-03T10:15:51;17.87;;;16.97;;
1957;SDS011;979;51.076;13.748;2022-11-03T10:18:35;17.40;;;16.70;;
1957;SDS011;979;51.076;13.748;2022-11-03T10:21:14;16.83;;;16.23;;
1957;SDS011;979;51.076;13.748;2022-11-03T10:23:47;17.77;;;16.97;;
1957;SDS011;979;51.076;13.748;2022-11-03T10:26:31;17.33;;;16.60;;
1957;SDS011;979;51.076;13.748;2022-11-03T10:29:22;17.53;;;16.63;;
1957;SDS011;979;51.076;13.748;2022-11-03T10:31:55;17.70;;;16.90;;
1957;SDS011;979;51.076;13.748;2022-11-03T10:34:30;17.77;;;16.90;;
1957;SDS011;979;51.076;13.748;2022-11-03T10:37:12;17.13;;;16.23;;
1957;SDS011;979;51.076;13.748;2022-11-03T10:39:50;17.43;;;16.40;;
1957;SDS011;979;51.076;13.748;2022-11-03T10:42:36;16.60;;;15.90;;
1957;SDS011;979;51.076;13.748;2022-11-03T12:13:50;16.80;;;16.03;;
1957;SDS011;979;51.076;13.748;2022-11-03T12:17:31;18.10;;;16.97;;
1957;SDS011;979;51.076;13.748;2022-11-03T12:20:34;17.53;;;16.80;;
1957;SDS011;979;51.076;13.748;2022-11-03T12:23:44;17.87;;;17.03;;
1957;SDS011;979;51.076;13.748;2022-11-03T12:26:52;17.73;;;17.03;;
1957;SDS011;979;51.076;13.748;2022-11-03T15:36:26;23.03;;;21.40;;
1957;SDS011;979;51.076;13.748;2022-11-03T15:44:28;21.40;;;19.80;;
1957;SDS011;979;51.076;13.748;2022-11-03T17:11:36;20.67;;;19.37;;
1957;SDS011;979;51.076;13.748;2022-11-03T17:15:01;21.73;;;20.27;;
1957;SDS011;979;51.076;13.748;2022-11-03T17:33:42;24.80;;;21.43;;
1957;SDS011;979;51.076;13.748;2022-11-03T17:36:59;22.60;;;20.83;;
1957;SDS011;979;51.076;13.748;2022-11-03T17:40:44;22.37;;;20.67;;
1957;SDS011;979;51.076;13.748;2022-11-03T17:45:25;24.23;;;22.40;;
1957;SDS011;979;51.076;13.748;2022-11-03T17:48:12;21.30;;;20.10;;
